Time;durP1;ratioP1;P1;durP2;ratioP2;P2;SDS_P1;SDS_P2;PMS_P1;PMS_P2;Temp;Humidity;BMP_temperature;BMP_pressure;BME280_temperature;BME280_humidity;BME280_pressure;Samples;Min_cycle;Max_cycle;Signal;HPM_P1;HPM_P2
2022/02/22 00:00:46;;;;;;;;;;;;;;;0.37;87.31;98437.69;5013249;28;20374;-74
2022/02/22 00:03:15;;;;;;;;;;;;;;;0.35;87.63;98444.88;5013101;28;20056;-74
2022/02/22 00:05:41;;;;;;;;;;;;;;;0.36;87.50;98449.94;5013339;28;19933;-73
2022/02/22 00:08:06;;;;;;;;;;;;;;;0.45;87.70;98454.25;5013201;28;20061;-73
2022/02/22 00:10:32;;;;;;;;;;;;;;;0.50;87.67;98459.84;5013220;28;19956;-73
2022/02/22 00:12:57;;;;;;;;;;;;;;;0.48;87.47;98455.72;5013269;28;19925;-73
2022/02/22 00:15:23;;;;;;;;;;;;;;;0.55;87.18;98467.22;5011797;28;19928;-75
2022/02/22 00:17:48;;;;;;;;;;;;;;;0.57;87.34;98462.66;5013155;28;19921;-75
2022/02/22 00:20:16;;;;;;;;;;;;;;;0.56;86.82;98458.41;5012890;28;20381;-74
2022/02/22 00:22:41;;;;;;;;;;;;;;;0.52;86.93;98447.41;5011513;28;19969;-75
2022/02/22 00:25:11;;;;;;;;;;;;;;;0.49;86.87;98441.66;5012982;28;20352;-74
2022/02/22 00:27:38;;;;;;;;;;;;;;;0.44;87.43;98434.28;5015826;28;19945;-73
2022/02/22 00:30:04;;;;;;;;;;;;;;;0.44;87.63;98433.47;5033938;28;19921;-73
2022/02/22 00:32:32;;;;;;;;;;;;;;;0.43;87.75;98447.53;5033645;28;19921;-74
2022/02/22 00:34:57;;;;;;;;;;;;;;;0.45;87.95;98451.63;5034758;28;19976;-78
2022/02/22 00:37:23;;;;;;;;;;;;;;;0.50;87.65;98453.78;5015546;28;20300;-75
2022/02/22 00:39:51;;;;;;;;;;;;;;;0.56;87.68;98458.41;5011687;28;20419;-74
2022/02/22 00:42:17;;;;;;;;;;;;;;;0.61;87.62;98453.53;5013089;28;19925;-73
2022/02/22 00:44:43;;;;;;;;;;;;;;;0.69;87.30;98444.88;5011695;28;19964;-73
2022/02/22 00:47:08;;;;;;;;;;;;;;;0.69;87.09;98443.09;5013822;28;19928;-75
2022/02/22 00:49:34;;;;;;;;;;;;;;;0.68;87.03;98438.81;5016899;28;20004;-75
2022/02/22 00:51:59;;;;;;;;;;;;;;;0.70;86.95;98429.00;5016799;28;19921;-76
2022/02/22 00:54:24;;;;;;;;;;;;;;;0.72;87.13;98431.47;5016656;28;19928;-75
2022/02/22 00:56:50;;;;;;;;;;;;;;;0.70;87.11;98429.00;4998852;28;19921;-74
2022/02/22 00:59:15;;;;;;;;;;;;;;;0.71;87.22;98428.03;5016467;28;19979;-74
2022/02/22 01:01:41;;;;;;;;;;;;;;;0.73;87.20;98423.44;5016467;28;19928;-74
2022/02/22 01:04:08;;;;;;;;;;;;;;;0.78;87.31;98421.19;5016139;28;19929;-74
2022/02/22 01:06:34;;;;;;;;;;;;;;;0.85;87.44;98422.19;5016309;28;19972;-73
2022/02/22 01:08:59;;;;;;;;;;;;;;;0.84;86.96;98423.16;5016607;28;19921;-74
2022/02/22 01:11:25;;;;;;;;;;;;;;;0.83;87.00;98429.38;5015813;28;19922;-75
2022/02/22 01:13:50;;;;;;;;;;;;;;;0.84;87.31;98428.41;5015951;28;19926;-74
2022/02/22 01:16:16;;;;;;;;;;;;;;;0.89;87.29;98428.78;5017241;28;19921;-75
2022/02/22 01:18:41;;;;;;;;;;;;;;;0.95;87.04;98431.75;4999046;28;19922;-73
2022/02/22 01:21:06;;;;;;;;;;;;;;;0.98;87.11;98423.56;5015399;28;20308;-74
2022/02/22 01:23:32;;;;;;;;;;;;;;;0.96;86.63;98426.34;5016429;28;19967;-72
2022/02/22 01:25:59;;;;;;;;;;;;;;;0.92;86.70;98420.59;5016734;28;19964;-72
2022/02/22 01:28:25;;;;;;;;;;;;;;;0.88;86.82;98416.66;5014821;28;19929;-75
2022/02/22 01:30:50;;;;;;;;;;;;;;;0.91;86.93;98426.81;5016406;28;19921;-74
2022/02/22 01:33:16;;;;;;;;;;;;;;;0.97;87.06;98424.53;5015938;28;19951;-72
2022/02/22 01:35:41;;;;;;;;;;;;;;;1.03;86.85;98424.72;5015032;28;20407;-73
2022/02/22 01:38:07;;;;;;;;;;;;;;;1.07;86.77;98425.22;5015300;28;19925;-72
2022/02/22 01:40:32;;;;;;;;;;;;;;;1.09;86.92;98425.88;5019004;28;19925;-74
2022/02/22 01:42:59;;;;;;;;;;;;;;;1.10;86.31;98419.66;5019003;28;19964;-75
2022/02/22 01:45:26;;;;;;;;;;;;;;;1.18;86.85;98422.31;5021547;28;19974;-73
2022/02/22 01:47:51;;;;;;;;;;;;;;;1.27;86.31;98418.72;5019026;28;19964;-74
2022/02/22 01:50:17;;;;;;;;;;;;;;;1.35;86.15;98423.97;5015420;28;19971;-75
2022/02/22 01:52:42;;;;;;;;;;;;;;;1.40;86.02;98421.69;5015545;28;20377;-74
2022/02/22 01:55:08;;;;;;;;;;;;;;;1.44;85.79;98420.38;5014407;28;20381;-74
2022/02/22 01:57:34;;;;;;;;;;;;;;;1.44;85.71;98425.63;5015955;28;20393;-73
2022/02/22 02:00:00;;;;;;;;;;;;;;;1.40;85.70;98428.72;5014495;28;20447;-74
2022/02/22 02:02:25;;;;;;;;;;;;;;;1.35;85.83;98423.97;5016073;28;19988;-73
2022/02/22 02:04:50;;;;;;;;;;;;;;;1.34;85.37;98432.00;5017320;28;19925;-72
2022/02/22 02:07:16;;;;;;;;;;;;;;;1.30;85.57;98430.69;5016904;28;19925;-73
2022/02/22 02:09:41;;;;;;;;;;;;;;;1.25;85.70;98436.41;5017242;28;19925;-74
2022/02/22 02:12:07;;;;;;;;;;;;;;;1.24;86.15;98438.22;5015898;28;19926;-73
2022/02/22 02:14:32;;;;;;;;;;;;;;;1.29;86.21;98431.66;5015274;28;19925;-75
2022/02/22 02:16:58;;;;;;;;;;;;;;;1.36;85.80;98436.09;5015102;28;19921;-73
2022/02/22 02:19:23;;;;;;;;;;;;;;;1.43;85.87;98441.53;5014900;28;19925;-73
2022/02/22 02:21:49;;;;;;;;;;;;;;;1.43;85.69;98431.84;5015301;28;19944;-73
2022/02/22 02:24:21;;;;;;;;;;;;;;;1.38;85.31;98428.91;5015130;28;20369;-74
2022/02/22 02:26:47;;;;;;;;;;;;;;;1.33;85.65;98425.94;5013868;28;19922;-74
2022/02/22 02:29:14;;;;;;;;;;;;;;;1.33;85.94;98425.13;5014994;28;19921;-74
2022/02/22 02:31:41;;;;;;;;;;;;;;;1.34;85.75;98426.75;5015025;28;19921;-73
2022/02/22 02:34:07;;;;;;;;;;;;;;;1.38;85.63;98422.81;4997259;28;19921;-75
2022/02/22 02:36:34;;;;;;;;;;;;;;;1.43;85.42;98408.25;5013740;28;19922;-74
2022/02/22 02:39:00;;;;;;;;;;;;;;;1.49;85.48;98412.88;5013496;28;20024;-71
2022/02/22 02:41:27;;;;;;;;;;;;;;;1.53;85.79;98411.56;5014926;28;19991;-73
2022/02/22 02:43:53;;;;;;;;;;;;;;;1.51;85.61;98412.69;5014499;28;19957;-72
2022/02/22 02:46:18;;;;;;;;;;;;;;;1.46;85.13;98410.56;5014528;28;19929;-76
2022/02/22 02:48:44;;;;;;;;;;;;;;;1.42;85.31;98411.84;5015286;28;20416;-73
2022/02/22 02:51:09;;;;;;;;;;;;;;;1.40;85.51;98418.25;5018170;28;19925;-73
2022/02/22 02:53:35;;;;;;;;;;;;;;;1.38;85.33;98415.78;4998966;28;19929;-73
2022/02/22 02:56:00;;;;;;;;;;;;;;;1.39;85.84;98414.81;5014767;28;20020;-72
2022/02/22 02:58:26;;;;;;;;;;;;;;;1.38;85.84;98407.91;5012899;28;19921;-74
2022/02/22 03:00:51;;;;;;;;;;;;;;;1.36;86.05;98409.06;5014125;28;20324;-74
2022/02/22 03:03:19;;;;;;;;;;;;;;;1.34;85.78;98406.59;5013701;28;20300;-74
2022/02/22 03:05:48;;;;;;;;;;;;;;;1.38;85.75;98402.66;5013800;28;19925;-73
2022/02/22 03:08:13;;;;;;;;;;;;;;;1.38;85.78;98402.66;5014989;28;19922;-74
2022/02/22 03:10:42;;;;;;;;;;;;;;;1.38;85.67;98401.84;5014649;28;19928;-73
2022/02/22 03:13:09;;;;;;;;;;;;;;;1.37;85.68;98401.03;5016576;28;19983;-75
2022/02/22 03:15:36;;;;;;;;;;;;;;;1.40;85.80;98395.47;5014530;28;19922;-73
2022/02/22 03:18:02;;;;;;;;;;;;;;;1.38;85.72;98394.81;5014773;28;19928;-72
2022/02/22 03:20:27;;;;;;;;;;;;;;;1.40;85.59;98400.69;5015454;28;19930;-74
2022/02/22 03:22:56;;;;;;;;;;;;;;;1.45;85.62;98398.44;5014379;28;20408;-72
2022/02/22 03:25:21;;;;;;;;;;;;;;;1.48;85.84;98392.88;5014205;28;19928;-73
2022/02/22 03:27:47;;;;;;;;;;;;;;;1.48;85.63;98392.88;5014154;28;19929;-72
2022/02/22 03:30:12;;;;;;;;;;;;;;;1.46;85.23;98397.47;5013684;28;19928;-74
2022/02/22 03:32:38;;;;;;;;;;;;;;;1.40;85.19;98405.94;5013747;28;20340;-74
2022/02/22 03:35:13;;;;;;;;;;;;;;;1.38;85.11;98396.59;5012376;28;19928;-76
2022/02/22 03:38:01;;;;;;;;;;;;;;;1.34;85.34;98401.34;5012906;28;19933;-72
2022/02/22 03:40:27;;;;;;;;;;;;;;;1.37;85.99;98403.66;5007455;28;20316;-73
2022/02/22 03:42:52;;;;;;;;;;;;;;;1.35;85.70;98403.00;5013533;28;19926;-73
2022/02/22 03:45:18;;;;;;;;;;;;;;;1.35;85.71;98403.00;5013510;28;19926;-75
2022/02/22 03:47:43;;;;;;;;;;;;;;;1.34;85.78;98403.97;5013376;28;19967;-73
2022/02/22 03:50:13;;;;;;;;;;;;;;;1.38;85.65;98407.91;5014589;28;19929;-77
2022/02/22 03:52:38;;;;;;;;;;;;;;;1.44;85.72;98402.00;5013650;28;20340;-73
2022/02/22 03:55:05;;;;;;;;;;;;;;;1.49;85.63;98402.38;5013717;28;19928;-73
2022/02/22 03:57:34;;;;;;;;;;;;;;;1.58;85.30;98408.44;5014138;28;19921;-76
2022/02/22 04:00:03;;;;;;;;;;;;;;;1.57;85.22;98401.56;5012158;28;19948;-74
2022/02/22 04:02:30;;;;;;;;;;;;;;;1.58;85.17;98402.38;5012196;28;19972;-73
2022/02/22 04:04:57;;;;;;;;;;;;;;;1.55;84.58;98400.91;5012060;28;19925;-73
2022/02/22 04:07:22;;;;;;;;;;;;;;;1.49;84.94;98398.94;5011844;28;19932;-73
2022/02/22 04:09:47;;;;;;;;;;;;;;;1.48;85.24;98405.97;5011787;28;19926;-67
2022/02/22 04:12:13;;;;;;;;;;;;;;;1.38;85.10;98393.97;5011764;28;20015;-72
2022/02/22 04:14:44;;;;;;;;;;;;;;;1.38;85.01;98396.59;5013497;28;19928;-71
2022/02/22 04:17:10;;;;;;;;;;;;;;;1.41;85.22;98398.91;4996930;28;19925;-69
2022/02/22 04:19:35;;;;;;;;;;;;;;;1.45;85.53;98397.63;5015393;28;19921;-71
2022/02/22 04:22:04;;;;;;;;;;;;;;;1.46;85.16;98394.84;5012896;28;19928;-73
2022/02/22 04:24:29;;;;;;;;;;;;;;;1.47;85.34;98396.47;5015999;28;19922;-70
2022/02/22 04:26:56;;;;;;;;;;;;;;;1.52;85.06;98396.81;4997171;28;19921;-71
2022/02/22 04:29:21;;;;;;;;;;;;;;;1.54;85.13;98400.06;5016463;28;20300;-72
2022/02/22 04:31:47;;;;;;;;;;;;;;;1.58;85.25;98392.69;5014834;28;19921;-71
2022/02/22 04:34:15;;;;;;;;;;;;;;;1.62;84.87;98394.00;5015373;28;19956;-72
2022/02/22 04:36:41;;;;;;;;;;;;;;;1.67;84.91;98389.09;5016563;28;19922;-72
2022/02/22 04:39:10;;;;;;;;;;;;;;;1.69;84.55;98389.75;5013678;28;19921;-66
2022/02/22 04:41:39;;;;;;;;;;;;;;;1.67;84.31;98396.97;5013654;28;19922;-65
2022/02/22 04:44:07;;;;;;;;;;;;;;;1.68;84.48;98393.34;5011812;28;20024;-66
2022/02/22 04:46:34;;;;;;;;;;;;;;;1.69;84.68;98399.41;5012533;28;19922;-66
2022/02/22 04:48:59;;;;;;;;;;;;;;;1.67;84.47;98396.97;5010653;28;19921;-64
2022/02/22 04:51:28;;;;;;;;;;;;;;;1.72;84.62;98401.72;5011525;28;19922;-64
2022/02/22 04:54:13;;;;;;;;;;;;;;;1.79;84.26;98405.34;5011088;28;19921;-66
2022/02/22 04:56:45;;;;;;;;;;;;;;;1.78;84.17;98398.44;4994541;28;19922;-65
2022/02/22 04:59:13;;;;;;;;;;;;;;;1.72;83.65;98399.91;5011478;28;19925;-66
2022/02/22 05:01:38;;;;;;;;;;;;;;;1.66;83.77;98402.38;5011762;28;19975;-67
2022/02/22 05:04:15;;;;;;;;;;;;;;;1.66;83.98;98405.00;5010570;28;19925;-68
2022/02/22 05:06:50;;;;;;;;;;;;;;;1.62;83.78;98393.19;5012307;28;19925;-65
2022/02/22 05:09:16;;;;;;;;;;;;;;;1.60;84.35;98397.78;5009937;28;19926;-67
2022/02/22 05:12:00;;;;;;;;;;;;;;;1.61;84.29;98402.03;5011602;28;19975;-66
2022/02/22 05:14:29;;;;;;;;;;;;;;;1.62;84.17;98399.25;5011833;28;19925;-66
2022/02/22 05:16:54;;;;;;;;;;;;;;;1.70;84.52;98395.81;5012024;28;19928;-66
2022/02/22 05:19:20;;;;;;;;;;;;;;;1.75;84.95;98394.34;5011932;28;19922;-68
2022/02/22 05:21:47;;;;;;;;;;;;;;;1.80;84.28;98393.84;5010816;28;19921;-64
2022/02/22 05:24:12;;;;;;;;;;;;;;;1.79;84.06;98394.84;5012231;28;19921;-64
2022/02/22 05:26:38;;;;;;;;;;;;;;;1.79;84.15;98389.59;5011673;28;19928;-67
2022/02/22 05:29:03;;;;;;;;;;;;;;;1.78;83.97;98383.53;5010226;28;20023;-67
2022/02/22 05:31:29;;;;;;;;;;;;;;;1.79;83.98;98389.59;5011153;28;19922;-67
2022/02/22 05:33:59;;;;;;;;;;;;;;;1.77;83.82;98386.31;5013663;28;20358;-68
2022/02/22 05:36:28;;;;;;;;;;;;;;;1.75;83.96;98383.03;5014391;28;19968;-64
2022/02/22 05:38:56;;;;;;;;;;;;;;;1.73;83.86;98395.47;5019092;28;19925;-66
2022/02/22 05:41:24;;;;;;;;;;;;;;;1.76;83.93;98395.19;4996835;28;19968;-64
2022/02/22 05:43:52;;;;;;;;;;;;;;;1.84;83.98;98406.47;5015529;28;19921;-64
2022/02/22 05:46:27;;;;;;;;;;;;;;;1.87;84.02;98400.09;4997874;28;20405;-73
2022/02/22 05:48:52;;;;;;;;;;;;;;;1.90;83.85;98397.13;5015861;28;19921;-68
2022/02/22 05:51:17;;;;;;;;;;;;;;;1.94;83.95;98403.69;4997895;28;19930;-65
2022/02/22 05:53:43;;;;;;;;;;;;;;;1.95;83.69;98404.50;4998507;28;19921;-65
2022/02/22 05:56:14;;;;;;;;;;;;;;;1.97;83.60;98400.72;5016783;28;20289;-68
2022/02/22 05:58:40;;;;;;;;;;;;;;;1.99;83.43;98405.81;4998453;28;19922;-67
2022/02/22 06:01:05;;;;;;;;;;;;;;;2.01;83.50;98395.97;5015009;28;19928;-64
2022/02/22 06:03:33;;;;;;;;;;;;;;;2.03;83.42;98401.88;5014793;28;20024;-63
2022/02/22 06:05:59;;;;;;;;;;;;;;;1.98;83.34;98404.97;5014922;28;19932;-73
2022/02/22 06:08:26;;;;;;;;;;;;;;;2.00;83.62;98407.44;5013880;28;19922;-75
2022/02/22 06:10:52;;;;;;;;;;;;;;;1.92;83.08;98396.97;5015452;28;19936;-77
2022/02/22 06:13:18;;;;;;;;;;;;;;;1.82;83.74;98397.97;5014944;28;20380;-69
2022/02/22 06:15:43;;;;;;;;;;;;;;;1.82;83.87;98399.75;5015234;28;20408;-67
2022/02/22 06:18:09;;;;;;;;;;;;;;;1.82;83.87;98405.00;4997344;28;20023;-68
2022/02/22 06:20:35;;;;;;;;;;;;;;;1.83;84.07;98401.41;4997279;28;19964;-68
2022/02/22 06:23:01;;;;;;;;;;;;;;;1.86;83.70;98408.94;5015153;28;19921;-72
2022/02/22 06:25:27;;;;;;;;;;;;;;;1.94;83.90;98408.94;4997572;28;19996;-63
2022/02/22 06:27:53;;;;;;;;;;;;;;;2.03;84.15;98412.38;5018586;28;19927;-71
2022/02/22 06:30:20;;;;;;;;;;;;;;;2.11;83.79;98407.94;5017350;28;20356;-68
2022/02/22 06:32:45;;;;;;;;;;;;;;;2.15;83.50;98406.63;4999294;28;19932;-69
2022/02/22 06:35:11;;;;;;;;;;;;;;;2.20;83.92;98405.28;5014239;28;19921;-72
2022/02/22 06:37:39;;;;;;;;;;;;;;;2.24;83.00;98406.59;4996101;28;19921;-71
2022/02/22 06:40:06;;;;;;;;;;;;;;;2.20;82.81;98407.91;5013999;28;19937;-69
2022/02/22 06:42:35;;;;;;;;;;;;;;;2.25;83.02;98410.84;4996841;28;19921;-70
2022/02/22 06:45:01;;;;;;;;;;;;;;;2.30;82.83;98409.38;5014288;28;19921;-70
2022/02/22 06:47:26;;;;;;;;;;;;;;;2.32;82.39;98411.84;5014594;28;19925;-66
2022/02/22 06:49:51;;;;;;;;;;;;;;;2.30;82.42;98412.00;4997452;28;19928;-67
2022/02/22 06:52:18;;;;;;;;;;;;;;;2.26;82.31;98412.50;4996794;28;20420;-67
2022/02/22 06:54:44;;;;;;;;;;;;;;;2.18;82.22;98415.97;5015368;28;19928;-71
2022/02/22 06:57:09;;;;;;;;;;;;;;;2.12;82.58;98417.47;5016678;28;20325;-66
2022/02/22 06:59:35;;;;;;;;;;;;;;;2.13;82.74;98421.72;4996975;28;19921;-65
2022/02/22 07:02:00;;;;;;;;;;;;;;;2.20;82.73;98423.69;5013846;28;19967;-65
2022/02/22 07:04:28;;;;;;;;;;;;;;;2.21;82.57;98423.50;5013909;28;19925;-66
2022/02/22 07:06:53;;;;;;;;;;;;;;;2.13;82.29;98429.59;5014019;28;19925;-67
2022/02/22 07:09:21;;;;;;;;;;;;;;;2.02;82.72;98426.47;5013716;28;19926;-69
2022/02/22 07:11:46;;;;;;;;;;;;;;;2.02;83.17;98427.28;5012777;28;20401;-65
2022/02/22 07:14:12;;;;;;;;;;;;;;;2.08;83.15;98436.34;5014196;28;19921;-64
2022/02/22 07:16:37;;;;;;;;;;;;;;;2.15;83.39;98432.06;5015008;28;19932;-67
2022/02/22 07:19:03;;;;;;;;;;;;;;;2.18;82.72;98431.72;5013804;28;19927;-67
2022/02/22 07:21:29;;;;;;;;;;;;;;;2.25;83.47;98431.88;5013471;28;19929;-66
2022/02/22 07:23:54;;;;;;;;;;;;;;;2.28;82.79;98431.53;5013596;28;20308;-67
2022/02/22 07:26:20;;;;;;;;;;;;;;;2.29;82.31;98433.19;5013548;28;20381;-69
2022/02/22 07:28:45;;;;;;;;;;;;;;;2.28;82.35;98436.78;5013524;28;19929;-69
2022/02/22 07:31:11;;;;;;;;;;;;;;;2.25;82.22;98435.31;4995845;28;20352;-63
2022/02/22 07:33:38;;;;;;;;;;;;;;;2.32;82.67;98435.50;5013334;28;20371;-69
2022/02/22 07:36:04;;;;;;;;;;;;;;;2.34;82.18;98438.78;5013264;28;20419;-67
2022/02/22 07:38:29;;;;;;;;;;;;;;;2.35;82.25;98438.59;5012042;28;19921;-65
2022/02/22 07:40:56;;;;;;;;;;;;;;;2.35;81.73;98443.03;5013195;28;19929;-66
2022/02/22 07:43:21;;;;;;;;;;;;;;;2.35;82.31;98445.66;4995716;28;19972;-67
2022/02/22 07:45:47;;;;;;;;;;;;;;;2.26;81.52;98433.50;5013048;28;20009;-67
2022/02/22 07:48:13;;;;;;;;;;;;;;;2.15;82.13;98439.94;5013161;28;19979;-68
2022/02/22 07:50:38;;;;;;;;;;;;;;;2.11;82.74;98442.06;5012398;28;19921;-71
2022/02/22 07:53:04;;;;;;;;;;;;;;;2.15;82.49;98438.13;4995130;28;20433;-66
2022/02/22 07:55:32;;;;;;;;;;;;;;;2.22;82.67;98447.97;5000477;28;20016;-68
2022/02/22 07:57:57;;;;;;;;;;;;;;;2.35;82.67;98443.84;5012358;28;19932;-64
2022/02/22 08:00:22;;;;;;;;;;;;;;;2.46;82.73;98447.94;5012205;28;19921;-66
2022/02/22 08:02:48;;;;;;;;;;;;;;;2.49;82.53;98450.22;5012643;28;20504;-63
2022/02/22 08:05:14;;;;;;;;;;;;;;;2.53;82.21;98456.78;4994690;28;19971;-66
2022/02/22 08:07:40;;;;;;;;;;;;;;;2.50;81.47;98454.47;4978572;28;19934;-66
2022/02/22 08:10:07;;;;;;;;;;;;;;;2.44;80.71;98453.34;5012555;28;19921;-72
2022/02/22 08:12:32;;;;;;;;;;;;;;;2.42;81.02;98454.50;5011000;28;19922;-70
2022/02/22 08:14:58;;;;;;;;;;;;;;;2.40;81.04;98461.75;5011397;28;19947;-70
2022/02/22 08:17:26;;;;;;;;;;;;;;;2.38;81.29;98468.97;5012656;28;19999;-69
2022/02/22 08:19:51;;;;;;;;;;;;;;;2.38;81.42;98467.16;5012637;28;20349;-71
2022/02/22 08:22:17;;;;;;;;;;;;;;;2.31;81.04;98468.78;5012187;28;19929;-68
2022/02/22 08:24:45;;;;;;;;;;;;;;;2.28;81.57;98463.88;5010998;28;19921;-64
2022/02/22 08:27:10;;;;;;;;;;;;;;;2.23;81.73;98470.63;5012517;28;20419;-70
2022/02/22 08:29:38;;;;;;;;;;;;;;;2.23;81.70;98475.88;4995014;28;19922;-70
2022/02/22 08:32:07;;;;;;;;;;;;;;;2.35;81.50;98472.75;5012122;28;19921;-65
2022/02/22 08:34:38;;;;;;;;;;;;;;;2.51;81.67;98473.69;4976408;28;19921;-69
2022/02/22 08:37:04;;;;;;;;;;;;;;;2.52;80.89;98470.91;4994127;28;20420;-69
2022/02/22 08:39:29;;;;;;;;;;;;;;;2.43;80.52;98467.47;5011264;28;19925;-65
2022/02/22 08:42:06;;;;;;;;;;;;;;;2.50;81.34;98472.88;4978225;28;19921;-76
2022/02/22 08:44:53;;;;;;;;;;;;;;;2.62;80.81;98476.00;4993814;28;19921;-67
2022/02/22 08:47:40;;;;;;;;;;;;;;;2.76;81.19;98473.47;5011501;28;20417;-68
2022/02/22 08:53:31;;;;;;;;;;;;;;;2.70;79.33;98478.59;4981399;28;19967;-68
2022/02/22 08:56:26;;;;;;;;;;;;;;;2.60;80.17;98478.78;4993179;28;19921;-68
2022/02/22 08:59:03;;;;;;;;;;;;;;;2.65;80.30;98478.28;5008345;28;19933;-65
2022/02/22 09:01:32;;;;;;;;;;;;;;;2.77;80.82;98477.75;5013409;28;19921;-67
2022/02/22 09:03:57;;;;;;;;;;;;;;;2.84;80.00;98474.44;5012142;28;19925;-73
2022/02/22 09:06:25;;;;;;;;;;;;;;;2.74;79.47;98474.63;5012526;28;19979;-75
2022/02/22 09:08:50;;;;;;;;;;;;;;;2.79;79.96;98474.94;5015545;28;19932;-67
2022/02/22 09:11:16;;;;;;;;;;;;;;;2.95;79.95;98472.28;5015720;28;19921;-76
2022/02/22 09:13:47;;;;;;;;;;;;;;;3.10;79.64;98472.38;4998337;28;20274;-75
2022/02/22 09:16:13;;;;;;;;;;;;;;;3.16;79.81;98474.31;5015865;28;19925;-69
2022/02/22 09:18:42;;;;;;;;;;;;;;;3.11;78.69;98481.91;5015709;28;20309;-67
2022/02/22 09:21:07;;;;;;;;;;;;;;;3.01;78.41;98476.03;5015694;28;19967;-70
2022/02/22 09:23:33;;;;;;;;;;;;;;;2.97;79.03;98480.81;5014923;28;19922;-68
2022/02/22 09:26:00;;;;;;;;;;;;;;;2.98;79.60;98481.63;5015119;28;19928;-72
2022/02/22 09:28:26;;;;;;;;;;;;;;;3.05;79.24;98482.59;5015415;28;20300;-74
2022/02/22 09:30:51;;;;;;;;;;;;;;;3.08;79.52;98484.88;4981966;28;19921;-74
2022/02/22 09:33:17;;;;;;;;;;;;;;;3.13;79.56;98484.34;5016191;28;19983;-77
2022/02/22 09:35:44;;;;;;;;;;;;;;;3.17;79.07;98486.47;5015698;28;19921;-68
2022/02/22 09:38:09;;;;;;;;;;;;;;;3.15;79.63;98491.09;5015294;28;20392;-63
2022/02/22 09:40:34;;;;;;;;;;;;;;;3.10;78.77;98490.78;5015163;28;19922;-64
2022/02/22 09:43:01;;;;;;;;;;;;;;;3.04;79.06;98499.34;5015371;28;19921;-63
2022/02/22 09:45:26;;;;;;;;;;;;;;;3.08;78.96;98492.75;5015316;28;19921;-65
2022/02/22 09:47:55;;;;;;;;;;;;;;;3.07;78.66;98497.19;5015212;28;19928;-66
2022/02/22 09:50:45;;;;;;;;;;;;;;;3.13;79.22;98498.31;5015351;28;19932;-65
2022/02/22 09:53:11;;;;;;;;;;;;;;;3.24;79.15;98497.97;5015008;28;19926;-66
2022/02/22 09:55:36;;;;;;;;;;;;;;;3.34;79.47;98493.31;5001672;28;19921;-71
2022/02/22 09:58:02;;;;;;;;;;;;;;;3.43;79.21;98494.09;5015184;28;20384;-69
2022/02/22 10:00:33;;;;;;;;;;;;;;;3.48;78.29;98496.22;5015042;28;19930;-70
2022/02/22 10:03:02;;;;;;;;;;;;;;;3.51;77.78;98504.59;5014949;28;19996;-65
2022/02/22 10:05:28;;;;;;;;;;;;;;;3.55;78.36;98497.16;5014431;28;19925;-64
2022/02/22 10:07:55;;;;;;;;;;;;;;;3.55;77.91;98499.78;5001123;28;19925;-69
2022/02/22 10:10:31;;;;;;;;;;;;;;;3.48;77.35;98497.03;5008203;28;19921;-68
2022/02/22 10:12:57;;;;;;;;;;;;;;;3.55;77.66;98495.34;5020449;28;19928;-70
2022/02/22 10:15:22;;;;;;;;;;;;;;;3.66;78.13;98492.31;4997975;28;19921;-61
2022/02/22 10:17:49;;;;;;;;;;;;;;;3.67;77.21;98495.75;4998808;28;20343;-71
2022/02/22 10:20:14;;;;;;;;;;;;;;;3.66;77.16;98491.50;4998583;28;19928;-76
2022/02/22 10:22:46;;;;;;;;;;;;;;;3.62;77.38;98495.47;5015031;28;19922;-73
2022/02/22 10:25:12;;;;;;;;;;;;;;;3.66;77.54;98497.56;5007892;28;19967;-70
2022/02/22 10:27:42;;;;;;;;;;;;;;;3.78;77.49;98503.28;5014986;28;19933;-73
2022/02/22 10:30:28;;;;;;;;;;;;;;;3.89;77.53;98502.88;5014882;28;19929;-69
2022/02/22 10:32:54;;;;;;;;;;;;;;;3.98;77.50;98507.06;5014349;28;19932;-67
2022/02/22 10:35:30;;;;;;;;;;;;;;;3.98;76.86;98508.88;5014912;28;19922;-75
2022/02/22 10:37:55;;;;;;;;;;;;;;;3.96;76.65;98510.88;5014957;28;19928;-70
2022/02/22 10:40:24;;;;;;;;;;;;;;;4.07;77.42;98512.31;5007461;28;20027;-77
2022/02/22 10:42:50;;;;;;;;;;;;;;;4.18;76.86;98506.63;5018684;28;20088;-76
2022/02/22 10:45:17;;;;;;;;;;;;;;;4.22;76.99;98513.16;4997109;28;20074;-72
2022/02/22 10:47:42;;;;;;;;;;;;;;;4.18;76.35;98512.69;5014126;28;19921;-75
2022/02/22 10:50:08;;;;;;;;;;;;;;;3.99;75.86;98511.34;4979955;28;19929;-75
2022/02/22 10:52:36;;;;;;;;;;;;;;;3.93;77.17;98517.31;5015829;28;20396;-71
2022/02/22 10:55:08;;;;;;;;;;;;;;;3.87;77.21;98519.84;5014885;28;19925;-69
2022/02/22 10:57:34;;;;;;;;;;;;;;;3.85;77.51;98527.91;4994064;28;20028;-71
2022/02/22 11:00:00;;;;;;;;;;;;;;;3.84;77.00;98521.00;4976716;28;20376;-70
2022/02/22 11:02:26;;;;;;;;;;;;;;;3.91;77.13;98524.56;4993507;28;19921;-67
2022/02/22 11:05:00;;;;;;;;;;;;;;;3.92;76.86;98531.47;4993929;28;20004;-65
2022/02/22 11:07:26;;;;;;;;;;;;;;;3.89;76.91;98529.19;4994186;28;19925;-64
2022/02/22 11:09:53;;;;;;;;;;;;;;;3.91;77.31;98529.84;4993083;28;19922;-67
2022/02/22 11:12:30;;;;;;;;;;;;;;;3.99;76.42;98527.16;4994677;28;19927;-64
2022/02/22 11:15:04;;;;;;;;;;;;;;;4.02;76.75;98533.88;4980626;28;19928;-66
2022/02/22 11:17:30;;;;;;;;;;;;;;;4.00;76.25;98541.13;5000020;28;19926;-66
2022/02/22 11:19:56;;;;;;;;;;;;;;;4.00;76.12;98536.69;4994014;28;20439;-65
2022/02/22 11:22:23;;;;;;;;;;;;;;;3.99;76.39;98540.31;4994482;28;19929;-65
2022/02/22 11:24:51;;;;;;;;;;;;;;;3.96;75.90;98540.66;4993911;28;20396;-67
2022/02/22 11:27:38;;;;;;;;;;;;;;;3.93;76.27;98542.84;4973451;28;20404;-67
2022/02/22 11:30:15;;;;;;;;;;;;;;;4.00;76.49;98546.41;4976124;28;20009;-66
2022/02/22 11:32:53;;;;;;;;;;;;;;;4.12;76.02;98547.66;4993711;28;20028;-67
2022/02/22 11:35:18;;;;;;;;;;;;;;;4.20;76.00;98546.78;4994279;28;20014;-66
2022/02/22 11:37:47;;;;;;;;;;;;;;;4.18;75.35;98543.50;4998018;28;20349;-69
2022/02/22 11:40:25;;;;;;;;;;;;;;;4.17;75.63;98555.03;4982691;28;19929;-66
2022/02/22 11:42:51;;;;;;;;;;;;;;;4.15;75.69;98549.13;4994357;28;19929;-72
2022/02/22 11:45:24;;;;;;;;;;;;;;;4.12;75.54;98560.00;4993022;28;19922;-72
2022/02/22 11:48:01;;;;;;;;;;;;;;;4.12;75.79;98555.56;4993182;28;20391;-72
2022/02/22 11:50:29;;;;;;;;;;;;;;;4.09;75.64;98553.28;4993012;28;19922;-70
2022/02/22 11:52:55;;;;;;;;;;;;;;;4.07;75.94;98551.81;4993142;28;20023;-66
2022/02/22 11:55:21;;;;;;;;;;;;;;;4.10;75.58;98552.28;4975641;28;20369;-70
2022/02/22 11:57:48;;;;;;;;;;;;;;;4.06;76.23;98555.44;4992688;28;19928;-70
2022/02/22 12:00:19;;;;;;;;;;;;;;;4.10;76.38;98562.00;4976130;28;20381;-70
2022/02/22 12:02:47;;;;;;;;;;;;;;;4.11;75.99;98561.00;4992767;28;19922;-70
2022/02/22 12:05:27;;;;;;;;;;;;;;;4.14;75.56;98560.66;4992829;28;19926;-70
2022/02/22 12:08:00;;;;;;;;;;;;;;;4.10;75.11;98562.00;4975795;28;19926;-69
2022/02/22 12:10:54;;;;;;;;;;;;;;;4.14;76.15;98568.56;4992447;28;19929;-70
2022/02/22 12:13:19;;;;;;;;;;;;;;;4.20;76.14;98573.94;4974231;28;20440;-76
2022/02/22 12:15:45;;;;;;;;;;;;;;;4.07;75.29;98575.53;4975601;28;20001;-73
2022/02/22 12:18:13;;;;;;;;;;;;;;;3.95;75.42;98582.97;4975671;28;19926;-68
2022/02/22 12:20:39;;;;;;;;;;;;;;;3.93;76.43;98587.59;4992914;28;20375;-67
2022/02/22 12:23:05;;;;;;;;;;;;;;;3.96;76.68;98593.34;4992476;28;20053;-67
2022/02/22 12:25:30;;;;;;;;;;;;;;;3.99;76.73;98587.72;4992732;28;19960;-73
2022/02/22 12:27:59;;;;;;;;;;;;;;;3.95;76.57;98586.44;4975509;28;19961;-72
2022/02/22 12:30:51;;;;;;;;;;;;;;;3.86;76.18;98592.75;4975372;28;19928;-71
2022/02/22 12:33:17;;;;;;;;;;;;;;;3.86;77.12;98595.38;4988191;28;20404;-75
2022/02/22 12:35:46;;;;;;;;;;;;;;;3.89;77.06;98597.66;4975460;28;19921;-73
2022/02/22 12:38:15;;;;;;;;;;;;;;;3.94;76.75;98592.69;4992997;28;19976;-69
2022/02/22 12:40:44;;;;;;;;;;;;;;;3.84;76.60;98605.28;4992928;28;20419;-71
2022/02/22 12:43:10;;;;;;;;;;;;;;;3.75;76.97;98606.28;4975635;28;20305;-73
2022/02/22 12:45:43;;;;;;;;;;;;;;;3.69;76.66;98602.53;4992719;28;19925;-72
2022/02/22 12:48:15;;;;;;;;;;;;;;;3.59;76.81;98616.88;4958568;28;19932;-73
2022/02/22 12:50:54;;;;;;;;;;;;;;;3.51;76.64;98619.56;4974595;28;19922;-72
2022/02/22 12:53:26;;;;;;;;;;;;;;;3.33;76.76;98615.31;4992729;28;19926;-69
2022/02/22 12:55:57;;;;;;;;;;;;;;;3.27;77.03;98618.63;4975950;28;20456;-71
2022/02/22 12:58:30;;;;;;;;;;;;;;;3.28;77.56;98627.34;4975010;28;20371;-71
2022/02/22 13:01:09;;;;;;;;;;;;;;;3.25;77.21;98625.06;4992401;28;19968;-70
2022/02/22 13:03:39;;;;;;;;;;;;;;;3.18;77.37;98630.19;4975283;28;19934;-70